Terminal Aerodrome Forecast
Issued by NWS

Home | Current Version | Previous Version | Text Only | Print | Product List | Glossary Off
Versions: 1 2 3 4 5 6 7 8 9 10 11 12 13 14 15 16 17 18 19 20 21 22 23 24 25 26

570
FTUS43 KLOT 051731
TAFMDW
TAF
KMDW 051731Z 0518/0618 32007KT P6SM SCT018 BKN250
      TEMPO 0518/0521 BKN018
     FM060200 24004KT P6SM SCT045 OVC090
     FM061000 22009KT P6SM OVC060
     FM061500 23010KT P6SM SCT045 BKN250=

USA.gov is the U.S. government's official web portal to all federal, state and local government web resources and services.